THY9NK LTAU-LTFM
Flight info
| Callsign | THY9NK |
|---|---|
| Flight time | N/A |
| Altitude | 36000 |
| Route | KISLA UL605 YAVRU UL615 ERSEN |
| Aircraft | A321/M-SDE3FGHIRWY/LB1 |
Departure
| Time | 2026-05-05 19:32 |
|---|---|
| Airport | Kayseri Erkilet International Airport (LTAU) |
Arrival
| Time | N/A |
|---|---|
| Airport | İstanbul Airport (LTFM) |
| Time | Latitude | Longitude | Altitude | Speed | Heading |
|---|---|---|---|---|---|
| 2026-05-05 19:08 | 38.76680 | 35.48792 | 3468 ft | 0 kts | 166° |
| 2026-05-05 19:19 | 38.76684 | 35.48790 | 3468 ft | 3 kts | 167° |
| 2026-05-05 19:19 | 38.76711 | 35.48785 | 3466 ft | 4 kts | 183° |
| 2026-05-05 19:19 | 38.76736 | 35.48792 | 3465 ft | 4 kts | 208° |
| 2026-05-05 19:20 | 38.76756 | 35.48812 | 3465 ft | 4 kts | 240° |
| 2026-05-05 19:20 | 38.76764 | 35.48835 | 3466 ft | 0 kts | 257° |
| 2026-05-05 19:22 | 38.76763 | 35.48833 | 3468 ft | 1 kts | 257° |
| 2026-05-05 19:23 | 38.76760 | 35.48816 | 3468 ft | 3 kts | 257° |
| 2026-05-05 19:23 | 38.76754 | 35.48782 | 3468 ft | 5 kts | 255° |
| 2026-05-05 19:23 | 38.76744 | 35.48732 | 3467 ft | 7 kts | 256° |
| 2026-05-05 19:23 | 38.76736 | 35.48667 | 3468 ft | 7 kts | 281° |
| 2026-05-05 19:24 | 38.76778 | 35.48635 | 3468 ft | 8 kts | 338° |
| 2026-05-05 19:24 | 38.76839 | 35.48615 | 3467 ft | 11 kts | 346° |
| 2026-05-05 19:24 | 38.76898 | 35.48599 | 3467 ft | 9 kts | 350° |
| 2026-05-05 19:24 | 38.76948 | 35.48586 | 3466 ft | 6 kts | 348° |
| 2026-05-05 19:25 | 38.76994 | 35.48596 | 3465 ft | 8 kts | 43° |
| 2026-05-05 19:25 | 38.77016 | 35.48656 | 3465 ft | 0 kts | 76° |
| 2026-05-05 19:26 | 38.77018 | 35.48668 | 3465 ft | 3 kts | 77° |
| 2026-05-05 19:26 | 38.77024 | 35.48702 | 3465 ft | 5 kts | 77° |
| 2026-05-05 19:26 | 38.77033 | 35.48751 | 3464 ft | 6 kts | 77° |
| 2026-05-05 19:26 | 38.77044 | 35.48815 | 3466 ft | 9 kts | 77° |
| 2026-05-05 19:27 | 38.77062 | 35.48910 | 3467 ft | 13 kts | 77° |
| 2026-05-05 19:27 | 38.77086 | 35.49044 | 3469 ft | 17 kts | 76° |
| 2026-05-05 19:27 | 38.77117 | 35.49195 | 3470 ft | 18 kts | 73° |
| 2026-05-05 19:27 | 38.77148 | 35.49355 | 3467 ft | 20 kts | 77° |
| 2026-05-05 19:28 | 38.77183 | 35.49542 | 3467 ft | 23 kts | 76° |
| 2026-05-05 19:28 | 38.77220 | 35.49743 | 3464 ft | 24 kts | 77° |
| 2026-05-05 19:28 | 38.77261 | 35.49952 | 3462 ft | 20 kts | 75° |
| 2026-05-05 19:28 | 38.77295 | 35.50108 | 3460 ft | 17 kts | 76° |
| 2026-05-05 19:29 | 38.77323 | 35.50264 | 3461 ft | 19 kts | 78° |
| 2026-05-05 19:29 | 38.77350 | 35.50423 | 3465 ft | 18 kts | 77° |
| 2026-05-05 19:29 | 38.77379 | 35.50578 | 3467 ft | 19 kts | 76° |
| 2026-05-05 19:29 | 38.77413 | 35.50745 | 3467 ft | 19 kts | 76° |
| 2026-05-05 19:30 | 38.77442 | 35.50908 | 3471 ft | 19 kts | 77° |
| 2026-05-05 19:30 | 38.77474 | 35.51072 | 3470 ft | 17 kts | 77° |
| 2026-05-05 19:30 | 38.77458 | 35.51171 | 3469 ft | 5 kts | 146° |
| 2026-05-05 19:30 | 38.77415 | 35.51188 | 3468 ft | 8 kts | 166° |
| 2026-05-05 19:31 | 38.77359 | 35.51174 | 3468 ft | 9 kts | 226° |
| 2026-05-05 19:31 | 38.77343 | 35.51103 | 3470 ft | 8 kts | 259° |
| 2026-05-05 19:31 | 38.77303 | 35.50877 | 3471 ft | 59 kts | 256° |
| 2026-05-05 19:31 | 38.77147 | 35.50072 | 3462 ft | 125 kts | 256° |
| 2026-05-05 19:32 | 38.76903 | 35.48769 | 3561 ft | 165 kts | 258° |
| 2026-05-05 19:32 | 38.76681 | 35.47395 | 4351 ft | 157 kts | 259° |
| 2026-05-05 19:32 | 38.76483 | 35.45972 | 4878 ft | 173 kts | 264° |
| 2026-05-05 19:32 | 38.76316 | 35.44343 | 5134 ft | 196 kts | 261° |
| 2026-05-05 19:33 | 38.76077 | 35.42524 | 5351 ft | 218 kts | 269° |
| 2026-05-05 19:33 | 38.76554 | 35.40624 | 5485 ft | 241 kts | 309° |
| 2026-05-05 19:33 | 38.77932 | 35.39269 | 5870 ft | 260 kts | 332° |
| 2026-05-05 19:33 | 38.79563 | 35.38224 | 6589 ft | 264 kts | 326° |
| 2026-05-05 19:34 | 38.80790 | 35.36483 | 7309 ft | 268 kts | 296° |
| 2026-05-05 19:34 | 38.81362 | 35.34207 | 8061 ft | 271 kts | 287° |
| 2026-05-05 19:34 | 38.81966 | 35.31942 | 8849 ft | 273 kts | 291° |
| 2026-05-05 19:35 | 38.83412 | 35.27373 | 10296 ft | 285 kts | 293° |
| 2026-05-05 19:35 | 38.83936 | 35.25737 | 10440 ft | 301 kts | 293° |
| 2026-05-05 19:35 | 38.85018 | 35.22290 | 10806 ft | 325 kts | 292° |
| 2026-05-05 19:35 | 38.85848 | 35.19573 | 11421 ft | 330 kts | 292° |
| 2026-05-05 19:36 | 38.86682 | 35.16800 | 12114 ft | 334 kts | 292° |
| 2026-05-05 19:36 | 38.87514 | 35.14005 | 12814 ft | 337 kts | 292° |
| 2026-05-05 19:36 | 38.88078 | 35.12094 | 13293 ft | 340 kts | 292° |
| 2026-05-05 19:36 | 38.88916 | 35.09242 | 13954 ft | 343 kts | 292° |
| 2026-05-05 19:37 | 38.89765 | 35.06356 | 14561 ft | 347 kts | 292° |
| 2026-05-05 19:37 | 38.90608 | 35.03489 | 15176 ft | 350 kts | 292° |
| 2026-05-05 19:37 | 38.91468 | 35.00559 | 15792 ft | 353 kts | 292° |
| 2026-05-05 19:37 | 38.92336 | 34.97600 | 16440 ft | 356 kts | 292° |